createdAt,value
2018-09-13T00:01:37.156Z,16.15
2018-09-13T00:04:06.135Z,16.05
2018-09-13T00:06:35.575Z,16.03
2018-09-13T00:09:05.944Z,16.27
2018-09-13T00:11:35.011Z,15.97
2018-09-13T00:14:04.592Z,15.96
2018-09-13T00:16:33.603Z,15.90
2018-09-13T00:19:02.557Z,16.00
2018-09-13T00:21:31.598Z,15.97
2018-09-13T00:24:00.807Z,15.91
2018-09-13T00:26:30.017Z,15.91
2018-09-13T00:28:58.951Z,15.92
2018-09-13T00:31:27.977Z,15.95
2018-09-13T00:33:57.149Z,15.89
2018-09-13T00:36:26.112Z,16.05
2018-09-13T00:38:55.066Z,16.04
2018-09-13T00:41:24.031Z,15.78
2018-09-13T00:43:53.391Z,16.07
2018-09-13T00:46:22.333Z,16.07
2018-09-13T00:48:51.297Z,15.82
2018-09-13T00:51:20.285Z,15.75
2018-09-13T00:53:49.338Z,15.67
2018-09-13T00:56:18.508Z,15.74
2018-09-13T00:58:47.455Z,15.77
2018-09-13T01:01:16.469Z,15.83
2018-09-13T01:03:45.434Z,16.02
2018-09-13T01:06:14.448Z,15.75
2018-09-13T01:08:43.357Z,15.67
2018-09-13T01:11:12.360Z,15.80
2018-09-13T01:13:41.381Z,15.48
2018-09-13T01:16:10.394Z,15.73
2018-09-13T01:18:39.376Z,15.67
2018-09-13T01:21:08.417Z,15.83
2018-09-13T01:23:37.402Z,15.67
2018-09-13T01:26:06.723Z,15.68
2018-09-13T01:28:35.727Z,15.42
2018-09-13T01:31:04.759Z,15.49
2018-09-13T01:33:33.815Z,15.43
2018-09-13T01:36:02.959Z,15.61
2018-09-13T01:38:31.962Z,15.51
2018-09-13T01:41:00.895Z,15.38
2018-09-13T01:43:29.974Z,15.66
2018-09-13T01:45:58.959Z,15.62
2018-09-13T01:48:28.049Z,15.76
2018-09-13T01:50:57.092Z,15.57
2018-09-13T01:53:26.207Z,15.50
2018-09-13T01:55:55.304Z,15.58
2018-09-13T01:58:24.270Z,15.47
2018-09-13T02:00:53.542Z,15.41
2018-09-13T02:03:22.832Z,15.40
2018-09-13T02:05:51.838Z,15.55
2018-09-13T02:08:20.923Z,15.51
2018-09-13T02:10:49.933Z,15.44
2018-09-13T02:13:19.080Z,15.48
2018-09-13T02:15:48.213Z,15.35
2018-09-13T02:18:17.266Z,15.33
2018-09-13T02:20:47.383Z,15.24
2018-09-13T02:23:16.524Z,15.40
2018-09-13T02:25:45.534Z,15.27
2018-09-13T02:28:14.539Z,15.48
2018-09-13T02:30:43.477Z,15.33
2018-09-13T02:33:12.429Z,15.37
2018-09-13T02:35:41.449Z,15.43
2018-09-13T02:38:10.424Z,15.39
2018-09-13T02:40:39.555Z,15.47
2018-09-13T02:43:08.569Z,15.23
2018-09-13T02:45:37.548Z,15.48
2018-09-13T02:48:06.479Z,15.17
2018-09-13T02:50:35.447Z,15.20
2018-09-13T02:53:04.524Z,15.44
2018-09-13T02:55:33.544Z,15.45
2018-09-13T02:58:02.523Z,15.36
2018-09-13T03:00:31.515Z,15.27
2018-09-13T03:03:00.621Z,15.37
2018-09-13T03:05:29.753Z,15.08
2018-09-13T03:07:58.783Z,15.11
2018-09-13T03:10:27.826Z,15.19
2018-09-13T03:12:56.810Z,15.13
2018-09-13T03:15:26.226Z,15.10
2018-09-13T03:17:55.292Z,15.03
2018-09-13T03:20:24.348Z,14.95
2018-09-13T03:22:53.344Z,14.92
2018-09-13T03:25:22.418Z,14.88
2018-09-13T03:27:51.512Z,15.07
2018-09-13T03:30:20.470Z,15.18
2018-09-13T03:32:49.441Z,15.06
2018-09-13T03:35:18.634Z,15.05
2018-09-13T03:37:47.603Z,14.92
2018-09-13T03:40:16.623Z,14.84
2018-09-13T03:42:45.581Z,14.98
2018-09-13T03:45:14.541Z,15.10
2018-09-13T03:47:43.558Z,14.98
2018-09-13T03:50:12.781Z,15.15
2018-09-13T03:52:41.793Z,15.14
2018-09-13T03:55:10.753Z,15.11
2018-09-13T03:57:40.057Z,15.07
2018-09-13T04:00:09.010Z,15.05
2018-09-13T04:02:38.055Z,15.16
2018-09-13T04:05:07.449Z,14.85
2018-09-13T04:07:36.408Z,14.82
2018-09-13T04:10:05.921Z,14.97
2018-09-13T04:12:34.887Z,14.96
2018-09-13T04:15:03.874Z,15.13
2018-09-13T04:17:32.836Z,15.01
2018-09-13T04:20:01.794Z,15.16
2018-09-13T04:22:30.842Z,15.25
2018-09-13T04:24:59.804Z,15.21
2018-09-13T04:27:28.892Z,15.24
2018-09-13T04:29:57.879Z,15.15
2018-09-13T04:32:26.828Z,14.94
2018-09-13T04:34:55.761Z,15.06
2018-09-13T04:37:24.763Z,15.29
2018-09-13T04:39:53.715Z,14.96
2018-09-13T04:42:22.649Z,15.01
2018-09-13T04:44:51.757Z,15.10
2018-09-13T04:47:20.739Z,15.03
2018-09-13T04:49:49.686Z,15.06
2018-09-13T04:52:18.706Z,15.15
2018-09-13T04:54:47.675Z,15.20
2018-09-13T04:57:17.105Z,15.20
2018-09-13T04:59:46.049Z,15.00
2018-09-13T05:02:15.026Z,15.23
2018-09-13T05:04:44.046Z,15.21
2018-09-13T05:07:13.014Z,15.12
2018-09-13T05:09:42.010Z,15.19
2018-09-13T05:12:11.027Z,15.00
2018-09-13T05:14:40.093Z,14.88
2018-09-13T05:17:09.158Z,15.10
2018-09-13T05:19:38.159Z,15.19
2018-09-13T05:22:07.175Z,15.23
2018-09-13T05:24:36.132Z,15.12
2018-09-13T05:27:05.157Z,14.93
2018-09-13T05:29:34.201Z,14.85
2018-09-13T05:32:03.326Z,14.95
2018-09-13T05:34:32.348Z,14.96
2018-09-13T05:37:01.289Z,15.01
2018-09-13T05:39:30.311Z,14.87
2018-09-13T05:41:59.299Z,14.81
2018-09-13T05:44:28.305Z,14.77
2018-09-13T05:46:57.247Z,14.73
2018-09-13T05:49:26.410Z,14.94
2018-09-13T05:51:55.395Z,15.01
2018-09-13T05:54:24.359Z,14.88
2018-09-13T05:56:53.342Z,14.73
2018-09-13T05:59:22.265Z,14.72
2018-09-13T06:01:51.282Z,14.53
2018-09-13T06:04:20.319Z,14.83
2018-09-13T06:06:49.301Z,14.76
2018-09-13T06:09:18.371Z,14.61
2018-09-13T06:11:47.350Z,14.59
2018-09-13T06:14:16.310Z,14.79
2018-09-13T06:16:45.253Z,14.87
2018-09-13T06:19:14.215Z,14.86
2018-09-13T06:21:43.146Z,14.68
2018-09-13T06:24:12.087Z,14.86
2018-09-13T06:26:41.044Z,14.68
2018-09-13T06:29:09.944Z,14.80
2018-09-13T06:31:39.332Z,14.66
2018-09-13T06:34:08.303Z,14.79
2018-09-13T06:36:37.362Z,15.01
2018-09-13T06:39:08.221Z,14.80
2018-09-13T06:41:37.268Z,14.83
2018-09-13T06:44:06.478Z,14.81
2018-09-13T06:46:35.444Z,15.05
2018-09-13T06:49:04.467Z,14.97
2018-09-13T06:51:33.457Z,14.88
2018-09-13T06:54:02.546Z,14.96
2018-09-13T06:56:31.580Z,15.08
2018-09-13T06:59:00.547Z,14.88
2018-09-13T07:01:29.521Z,15.03
2018-09-13T07:03:58.556Z,14.96
2018-09-13T07:06:27.514Z,15.07
2018-09-13T07:08:56.658Z,15.01
2018-09-13T07:11:25.674Z,15.06
2018-09-13T07:13:54.800Z,15.17
2018-09-13T07:16:23.841Z,15.28
2018-09-13T07:18:52.782Z,15.31
2018-09-13T07:21:21.813Z,15.22
2018-09-13T07:23:50.764Z,15.25
2018-09-13T07:26:19.763Z,15.36
2018-09-13T07:28:49.104Z,15.31
2018-09-13T07:31:18.074Z,15.15
2018-09-13T07:33:47.079Z,15.28
2018-09-13T07:36:16.094Z,15.24
2018-09-13T07:38:45.111Z,15.51
2018-09-13T07:41:14.130Z,15.54
2018-09-13T07:43:43.095Z,15.65
2018-09-13T07:46:12.040Z,15.64
2018-09-13T07:48:41.026Z,15.67
2018-09-13T07:51:10.067Z,15.77
2018-09-13T07:53:39.130Z,15.84
2018-09-13T07:56:08.112Z,15.81
2018-09-13T07:58:37.059Z,15.82
2018-09-13T08:01:06.085Z,15.75
2018-09-13T08:03:35.074Z,15.94
2018-09-13T08:06:04.074Z,15.98
2018-09-13T08:08:33.047Z,16.03
2018-09-13T08:11:02.140Z,15.95
2018-09-13T08:13:31.112Z,16.05
2018-09-13T08:16:00.140Z,16.03
2018-09-13T08:18:29.100Z,16.12
2018-09-13T08:20:58.075Z,16.09
2018-09-13T08:23:27.051Z,16.03
2018-09-13T08:25:56.089Z,16.08
2018-09-13T08:28:25.076Z,16.10
2018-09-13T08:30:54.108Z,16.05
2018-09-13T08:33:23.316Z,16.11
2018-09-13T08:35:52.260Z,16.06
2018-09-13T08:38:21.239Z,16.12
2018-09-13T08:40:50.239Z,16.19
2018-09-13T08:43:19.260Z,16.17
2018-09-13T08:45:48.208Z,16.18
2018-09-13T08:48:17.212Z,16.23
2018-09-13T08:50:46.246Z,16.34
2018-09-13T08:53:15.193Z,16.29
2018-09-13T08:55:44.182Z,16.37
2018-09-13T08:58:13.271Z,16.27
2018-09-13T09:00:42.254Z,16.32
2018-09-13T09:03:11.321Z,16.29
2018-09-13T09:05:41.168Z,16.25
2018-09-13T09:08:10.135Z,16.31
2018-09-13T09:10:39.128Z,16.29
2018-09-13T09:13:08.202Z,16.50
2018-09-13T09:15:37.931Z,16.58
2018-09-13T09:18:06.928Z,16.59
2018-09-13T09:20:35.904Z,16.63
2018-09-13T09:23:04.895Z,16.70
2018-09-13T09:25:33.856Z,16.67
2018-09-13T09:28:03.128Z,16.52
2018-09-13T09:30:32.087Z,16.58
2018-09-13T09:33:01.041Z,16.57
2018-09-13T09:35:30.294Z,16.64
2018-09-13T09:38:00.029Z,16.59
2018-09-13T09:40:29.102Z,16.53
2018-09-13T09:42:58.170Z,16.47
2018-09-13T09:45:27.150Z,16.51
2018-09-13T09:47:56.152Z,16.42
2018-09-13T09:50:25.209Z,16.48
2018-09-13T09:52:54.217Z,16.47
2018-09-13T09:55:24.122Z,16.62
2018-09-13T09:57:53.784Z,16.69
2018-09-13T10:00:27.773Z,16.77
2018-09-13T10:02:56.856Z,16.84
2018-09-13T10:05:25.810Z,17.00
2018-09-13T10:07:54.891Z,17.09
2018-09-13T10:10:23.907Z,17.14
2018-09-13T10:12:52.883Z,17.26
2018-09-13T10:15:27.214Z,17.24
2018-09-13T10:18:01.393Z,17.09
2018-09-13T10:20:35.729Z,17.16
2018-09-13T10:23:10.107Z,17.17
2018-09-13T10:25:44.386Z,17.34
2018-09-13T10:28:18.799Z,17.34
2018-09-13T10:30:53.218Z,17.45
2018-09-13T10:33:27.560Z,17.48
2018-09-13T10:36:01.741Z,17.44
2018-09-13T10:38:36.132Z,17.54
2018-09-13T10:41:10.408Z,17.65
2018-09-13T10:43:44.778Z,17.66
2018-09-13T10:46:19.114Z,17.76
2018-09-13T10:48:53.288Z,17.87
2018-09-13T10:51:27.410Z,17.94
2018-09-13T10:53:59.305Z,18.01
2018-09-13T10:56:33.674Z,17.96
2018-09-13T10:59:08.152Z,18.07
2018-09-13T11:01:42.516Z,18.08
2018-09-13T11:04:11.600Z,18.15
2018-09-13T11:06:40.683Z,18.16
2018-09-13T11:09:12.152Z,18.35
2018-09-13T11:11:41.801Z,18.30
2018-09-13T11:14:22.907Z,18.16
2018-09-13T11:16:52.026Z,18.33
2018-09-13T11:19:20.989Z,18.12
2018-09-13T11:21:50.021Z,18.08
2018-09-13T11:24:18.979Z,18.24
2018-09-13T11:26:47.978Z,18.15
2018-09-13T11:29:17.032Z,18.19
2018-09-13T11:31:46.015Z,18.10
2018-09-13T11:34:15.126Z,18.17
2018-09-13T11:36:44.129Z,17.99
2018-09-13T11:39:13.712Z,18.06
2018-09-13T11:41:42.742Z,18.14
2018-09-13T11:44:11.720Z,18.15
2018-09-13T11:46:40.884Z,18.22
2018-09-13T11:49:09.857Z,18.26
2018-09-13T11:51:39.040Z,18.13
2018-09-13T11:54:08.028Z,18.18
2018-09-13T11:56:36.974Z,18.19
2018-09-13T11:59:05.979Z,18.30
2018-09-13T12:01:34.917Z,18.28
2018-09-13T12:04:03.902Z,18.27
2018-09-13T12:06:32.994Z,18.25
2018-09-13T12:09:01.996Z,18.25
2018-09-13T12:11:31.342Z,18.40
2018-09-13T12:14:00.349Z,18.47
2018-09-13T12:16:29.403Z,18.56
2018-09-13T12:18:58.406Z,18.63
2018-09-13T12:21:27.375Z,18.64
2018-09-13T12:23:56.336Z,18.56
2018-09-13T12:26:25.295Z,18.69
2018-09-13T12:28:54.330Z,18.75
2018-09-13T12:31:23.300Z,18.79
2018-09-13T12:33:52.311Z,18.87
2018-09-13T12:36:21.274Z,18.83
2018-09-13T12:38:50.268Z,18.84
2018-09-13T12:41:19.282Z,18.93
2018-09-13T12:43:48.331Z,18.73
2018-09-13T12:46:17.337Z,18.85
2018-09-13T12:48:46.330Z,18.80
2018-09-13T12:51:15.359Z,18.62
2018-09-13T12:53:44.407Z,18.74
2018-09-13T12:56:13.418Z,18.87
2018-09-13T12:58:42.453Z,18.87
2018-09-13T13:01:11.531Z,18.98
2018-09-13T13:03:40.560Z,19.01
2018-09-13T13:06:09.855Z,19.05
2018-09-13T13:08:38.880Z,19.06
2018-09-13T13:11:07.806Z,19.09
2018-09-13T13:13:36.838Z,19.05
2018-09-13T13:16:05.837Z,18.96
2018-09-13T13:18:34.896Z,18.93
2018-09-13T13:21:03.871Z,18.91
2018-09-13T13:23:32.805Z,19.01
2018-09-13T13:26:01.793Z,18.98
2018-09-13T13:28:30.801Z,19.02
2018-09-13T13:31:00.087Z,19.09
2018-09-13T13:33:29.059Z,18.98
2018-09-13T13:35:58.019Z,19.06
2018-09-13T13:38:27.063Z,19.00
2018-09-13T13:40:56.010Z,19.04
2018-09-13T13:43:24.973Z,19.13
2018-09-13T13:45:54.004Z,19.01
2018-09-13T13:48:23.017Z,19.04
2018-09-13T13:50:52.113Z,19.04
2018-09-13T13:53:21.102Z,19.14
2018-09-13T13:55:50.072Z,19.07
2018-09-13T13:58:19.055Z,19.15
2018-09-13T14:00:47.986Z,19.18
2018-09-13T14:03:17.033Z,19.13
2018-09-13T14:05:46.058Z,19.12
2018-09-13T14:08:15.023Z,19.20
2018-09-13T14:10:44.009Z,19.24
2018-09-13T14:13:13.246Z,19.22
2018-09-13T14:15:42.194Z,19.32
2018-09-13T14:18:11.130Z,19.28
2018-09-13T14:20:40.253Z,19.29
2018-09-13T14:23:09.170Z,19.29
2018-09-13T14:25:38.483Z,19.37
2018-09-13T14:28:07.444Z,19.40
2018-09-13T14:30:36.693Z,19.43
2018-09-13T14:33:05.678Z,19.32
2018-09-13T14:35:35.424Z,19.39
2018-09-13T14:38:04.354Z,19.39
2018-09-13T14:40:33.285Z,19.36
2018-09-13T14:43:02.259Z,19.46
2018-09-13T14:45:31.158Z,19.36
2018-09-13T14:48:00.219Z,19.37
2018-09-13T14:50:29.807Z,19.34
2018-09-13T14:52:58.856Z,19.31
2018-09-13T14:55:27.833Z,19.40
2018-09-13T14:57:56.854Z,19.55
2018-09-13T15:00:25.809Z,19.43
2018-09-13T15:02:54.794Z,19.36
2018-09-13T15:05:23.740Z,19.44
2018-09-13T15:07:52.716Z,19.38
2018-09-13T15:10:22.073Z,19.34
2018-09-13T15:12:51.071Z,19.47
2018-09-13T15:15:20.174Z,19.70
2018-09-13T15:17:49.173Z,19.90
2018-09-13T15:20:18.327Z,19.93
2018-09-13T15:22:47.350Z,19.90
2018-09-13T15:25:16.288Z,20.00
2018-09-13T15:27:45.421Z,19.93
2018-09-13T15:30:14.655Z,19.90
2018-09-13T15:32:43.644Z,19.77
2018-09-13T15:35:12.668Z,19.76
2018-09-13T15:37:41.830Z,19.73
2018-09-13T15:40:10.843Z,19.55
2018-09-13T15:42:39.802Z,19.65
2018-09-13T15:45:09.062Z,19.76
2018-09-13T15:47:38.031Z,19.82
2018-09-13T15:50:07.044Z,19.86
2018-09-13T15:52:36.041Z,19.85
2018-09-13T15:55:05.109Z,19.88
2018-09-13T15:57:34.169Z,19.92
2018-09-13T16:00:03.120Z,19.84
2018-09-13T16:02:32.370Z,19.72
2018-09-13T16:05:01.323Z,19.70
2018-09-13T16:07:30.911Z,19.66
2018-09-13T16:09:59.934Z,19.73
2018-09-13T16:12:30.105Z,19.71
2018-09-13T16:14:59.024Z,19.72
2018-09-13T16:17:29.237Z,19.71
2018-09-13T16:19:58.243Z,19.73
2018-09-13T16:22:27.524Z,19.73
2018-09-13T16:24:59.092Z,19.73
2018-09-13T16:27:28.135Z,19.56
2018-09-13T16:29:57.104Z,19.67
2018-09-13T16:32:27.209Z,19.52
2018-09-13T16:34:59.014Z,19.39
2018-09-13T16:38:34.964Z,19.49
2018-09-13T16:41:09.588Z,19.39
2018-09-13T16:43:43.940Z,19.32
2018-09-13T16:46:17.120Z,19.30
2018-09-13T16:48:46.056Z,19.27
2018-09-13T16:51:15.003Z,19.24
2018-09-13T16:53:43.982Z,19.27
2018-09-13T16:56:12.942Z,19.23
2018-09-13T16:58:41.865Z,19.02
2018-09-13T17:01:10.821Z,18.95
2018-09-13T17:03:39.857Z,18.95
2018-09-13T17:08:36.573Z,18.90
2018-09-13T17:11:05.613Z,18.76
2018-09-13T17:13:34.610Z,18.66
2018-09-13T17:16:03.587Z,18.74
2018-09-13T17:18:32.540Z,18.60
2018-09-13T17:21:01.473Z,18.54
2018-09-13T17:23:30.464Z,18.57
2018-09-13T17:25:59.520Z,18.50
2018-09-13T17:28:28.457Z,18.46
2018-09-13T17:30:57.396Z,18.46
2018-09-13T17:33:26.369Z,18.36
2018-09-13T17:35:55.345Z,18.35
2018-09-13T17:38:24.296Z,18.37
2018-09-13T17:40:53.266Z,18.34
2018-09-13T17:43:22.307Z,18.18
2018-09-13T17:45:51.349Z,18.00
2018-09-13T17:48:20.323Z,17.95
2018-09-13T17:50:49.276Z,17.91
2018-09-13T17:53:19.079Z,17.87
2018-09-13T17:55:48.092Z,17.80
2018-09-13T17:58:17.058Z,17.84
2018-09-13T18:00:46.012Z,17.76
2018-09-13T18:03:15.063Z,17.74
2018-09-13T18:05:44.035Z,17.70
2018-09-13T18:08:13.001Z,17.68
2018-09-13T18:10:41.956Z,17.75
2018-09-13T18:13:10.925Z,17.62
2018-09-13T18:15:39.902Z,17.50
2018-09-13T18:18:08.884Z,17.68
2018-09-13T18:20:37.885Z,17.58
2018-09-13T18:23:06.915Z,17.41
2018-09-13T18:25:35.858Z,17.53
2018-09-13T18:28:04.818Z,17.51
2018-09-13T18:30:33.846Z,17.42
2018-09-13T18:33:03.166Z,17.32
2018-09-13T18:35:32.089Z,17.27
2018-09-13T18:38:01.038Z,17.26
2018-09-13T18:40:30.039Z,17.25
2018-09-13T18:42:58.970Z,17.29
2018-09-13T18:45:27.948Z,17.20
2018-09-13T18:47:57.981Z,17.11
2018-09-13T18:50:27.112Z,17.17
2018-09-13T18:52:56.110Z,17.17
2018-09-13T18:55:24.993Z,17.02
2018-09-13T18:58:00.295Z,17.00
2018-09-13T19:00:29.294Z,16.97
2018-09-13T19:02:58.270Z,16.87
2018-09-13T19:05:27.419Z,16.86
2018-09-13T19:07:56.367Z,16.91
2018-09-13T19:10:25.491Z,16.97
2018-09-13T19:12:54.470Z,16.92
2018-09-13T19:15:23.465Z,16.99
2018-09-13T19:17:52.431Z,16.90
2018-09-13T19:20:22.272Z,17.08
2018-09-13T19:22:58.027Z,16.83
2018-09-13T19:25:27.007Z,16.89
2018-09-13T19:27:55.989Z,16.68
2018-09-13T19:30:24.922Z,17.00
2018-09-13T19:32:53.902Z,16.64
2018-09-13T19:35:22.887Z,16.57
2018-09-13T19:37:51.824Z,16.62
2018-09-13T19:40:21.549Z,16.56
2018-09-13T19:42:50.962Z,16.58
2018-09-13T19:45:19.964Z,16.49
2018-09-13T19:47:48.994Z,16.57
2018-09-13T19:50:18.319Z,16.57
2018-09-13T19:52:47.936Z,16.41
2018-09-13T19:55:16.948Z,16.51
2018-09-13T19:57:45.912Z,16.61
2018-09-13T20:00:15.650Z,16.44
2018-09-13T20:02:44.606Z,16.30
2018-09-13T20:05:13.608Z,16.21
2018-09-13T20:07:42.615Z,16.19
2018-09-13T20:10:11.600Z,16.12
2018-09-13T20:12:40.612Z,16.01
2018-09-13T20:15:09.617Z,16.06
2018-09-13T20:17:39.244Z,16.04
2018-09-13T20:20:08.321Z,16.02
2018-09-13T20:22:37.631Z,16.41
2018-09-13T20:25:06.844Z,16.07
2018-09-13T20:27:36.777Z,16.24
2018-09-13T20:30:06.803Z,16.24
2018-09-13T20:32:35.868Z,16.11
2018-09-13T20:35:04.976Z,16.10
2018-09-13T20:37:33.969Z,15.80
2018-09-13T20:40:02.969Z,15.86
2018-09-13T20:42:31.990Z,15.98
2018-09-13T20:45:01.152Z,16.00
2018-09-13T20:47:30.225Z,15.93
2018-09-13T20:49:59.267Z,15.99
2018-09-13T20:52:28.485Z,15.85
2018-09-13T20:54:57.487Z,15.93
2018-09-13T20:57:26.585Z,16.12
2018-09-13T20:59:55.509Z,16.07
2018-09-13T21:02:25.463Z,16.26
2018-09-13T21:04:54.439Z,15.88
2018-09-13T21:07:23.355Z,15.70
2018-09-13T21:09:52.493Z,15.61
2018-09-13T21:12:21.470Z,15.64
2018-09-13T21:14:50.576Z,15.52
2018-09-13T21:17:20.021Z,15.70
2018-09-13T21:19:49.180Z,15.70
2018-09-13T21:22:18.169Z,15.73
2018-09-13T21:24:47.112Z,15.94
2018-09-13T21:27:16.107Z,16.00
2018-09-13T21:29:45.100Z,15.88
2018-09-13T21:32:14.175Z,15.80
2018-09-13T21:34:43.148Z,15.67
2018-09-13T21:37:12.063Z,15.83
2018-09-13T21:39:41.226Z,15.99
2018-09-13T21:42:10.694Z,15.75
2018-09-13T21:44:39.806Z,15.45
2018-09-13T21:47:08.980Z,15.49
2018-09-13T21:49:37.991Z,15.57
2018-09-13T21:52:07.169Z,15.38
2018-09-13T21:54:36.392Z,15.42
2018-09-13T21:57:05.520Z,15.36
2018-09-13T21:59:34.563Z,15.44
2018-09-13T22:02:03.622Z,15.48
2018-09-13T22:04:33.100Z,15.74
2018-09-13T22:07:02.094Z,15.61
2018-09-13T22:09:31.211Z,15.48
2018-09-13T22:12:00.448Z,15.35
2018-09-13T22:14:29.521Z,15.26
2018-09-13T22:16:58.579Z,15.11
2018-09-13T22:19:27.670Z,14.96
2018-09-13T22:21:56.750Z,15.01
2018-09-13T22:24:27.571Z,15.00
2018-09-13T22:27:01.297Z,15.02
2018-09-13T22:29:33.481Z,15.07
2018-09-13T22:32:07.280Z,15.04
2018-09-13T22:34:42.510Z,15.20
2018-09-13T22:37:15.071Z,15.05
2018-09-13T22:39:48.160Z,15.10
2018-09-13T22:42:17.169Z,15.07
2018-09-13T22:44:46.196Z,15.03
2018-09-13T22:47:15.238Z,14.87
2018-09-13T22:49:44.254Z,15.08
2018-09-13T22:52:13.487Z,15.08
2018-09-13T22:54:42.450Z,15.05
2018-09-13T22:57:11.447Z,15.12
2018-09-13T22:59:40.430Z,15.04
2018-09-13T23:02:09.383Z,15.06
2018-09-13T23:04:38.425Z,14.83
2018-09-13T23:07:07.418Z,15.06
2018-09-13T23:09:36.513Z,14.93
2018-09-13T23:12:06.291Z,15.00
2018-09-13T23:14:35.321Z,14.65
2018-09-13T23:17:04.261Z,14.63
2018-09-13T23:19:33.306Z,14.79
2018-09-13T23:22:02.373Z,14.67
2018-09-13T23:24:31.376Z,14.61
2018-09-13T23:27:00.553Z,14.74
2018-09-13T23:29:29.486Z,14.37
2018-09-13T23:31:58.410Z,14.58
2018-09-13T23:34:27.357Z,14.49
2018-09-13T23:36:56.340Z,14.43
2018-09-13T23:39:25.465Z,14.55
2018-09-13T23:41:54.223Z,14.36
2018-09-13T23:44:23.167Z,14.42
2018-09-13T23:46:54.094Z,14.10
2018-09-13T23:49:23.101Z,14.29
2018-09-13T23:51:52.044Z,14.30
2018-09-13T23:54:21.014Z,14.40
2018-09-13T23:56:50.004Z,14.26
2018-09-13T23:59:18.971Z,14.51
